AirNav   Everest Fuels
 
 1401 users online  

33U Dutch John Airport
Dutch John, Utah, USA

GOING TO DUTCH JOHN?


FAA INFORMATION EFFECTIVE 10 OCTOBER 2019

Location

FAA Identifier: 33U
Lat/Long: 40-55-04.1250N 109-23-26.3785W
40-55.068750N 109-23.439642W
40.9178125,-109.3906607
(estimated)
Elevation: 6561 ft. / 2000 m (estimated)
Variation: 14E (1985)
From city: 1 mile SW of DUTCH JOHN, UT
Time zone: UTC -6 (UTC -7 during Standard Time)
Zip code: 84023

Airport Operations

Airport use: Open to the public
Activation date: 01/1962
Control tower: no
ARTCC: SALT LAKE CITY CENTER
FSS: CEDAR CITY FLIGHT SERVICE STATION
NOTAMs facility: CDC (NOTAM-D service available)
Attendance: UNATNDD
LIMITED SNOW PLOWING DURING WINTER MONTHS
Wind indicator: yes
Segmented circle: no

Airport Communications

CTAF: 122.9

Nearby radio navigation aids

VOR radial/distance  VOR name  Freq  Var
VELr353/32.7VERNAL VOR/DME108.2015E

Airport Services

Parking: tiedowns
Airframe service: NONE
Powerplant service: NONE
Bottled oxygen: NONE
Bulk oxygen: NONE

Runway Information

Runway 11/29

Dimensions: 6000 x 60 ft. / 1829 x 18 m
Surface: asphalt, in good condition
Weight bearing capacity: 
Single wheel: 12.5
Gradient: E
RUNWAY 11  RUNWAY 29
Latitude: 40-55.342167N40-54.795333N
Longitude: 109-23.981783W109-22.897500W
Elevation: 6542.3 ft.6559.5 ft.
Traffic pattern: leftleft
Markings: basic, in good conditionbasic, in good condition

Runway 7/25

Dimensions: 4450 x 100 ft. / 1356 x 30 m
Surface: turf/dirt, in fair condition
RY 07/25 NOT MAINT; NUMEROUS RODENT HOLES; NUMEROUS TREES ON APCH ENDS.
Operational restrictions: CLSD INDEFLY
RUNWAY 7  RUNWAY 25
Traffic pattern: leftleft

Airport Ownership and Management from official FAA records

Ownership: Publicly-owned
Owner: DAGGETT COUNTY
95 N. 1ST W., P.O. BOX 219
MANILA, UT 84046-0219
Phone 435-784-3154
Manager: MR. BRIAN RAYMOND
95 NORTH 1ST WEST, P.O. BOX 219, PO BOX 219
MANILA, UT 84046-0219
Phone (435) 784-3154

Airport Operational Statistics

Aircraft operations: avg 82/month *
79% transient general aviation
18% local general aviation
3% air taxi
* for 12-month period ending 02 January 2012

Additional Remarks

DEER AND ELK ON AND INVOF ARPT.
TWO CROSSING DIRT/TURF RYS APPEAR TO BE OPEN BUT ARE CLOSED & NOT MAINTAINED.
ACFT IN EXCESS OF 12,500 POUNDS MAXIMUM GROSS WEIGHT PROHIBITED FROM USING APRT.
FOR CD CTC SALT LAKE ARTCC AT 801-320-2568.

Instrument Procedures

There are no published instrument procedures at 33U.

Some nearby airports with instrument procedures:

KVEL - Vernal Regional Airport (29 nm S)
KRKS - Southwest Wyoming Regional Airport (43 nm N)
74V - Roosevelt Municipal Airport (49 nm SW)
KFBR - Fort Bridger Airport (54 nm NW)
4V0 - Rangely Airport (57 nm SE)
 
Loc | Ops | Rwys | IFR | FBO | Links
Com | Nav | Svcs | Stats | Notes
Area around 33U (Dutch John Airport)
 
Road maps at: MapQuest Bing Google
 
Aerial photo
WARNING: Photo may not be current or correct
Aerial photo of 33U (Dutch John Airport)
Photo taken 09-Apr-2007

Do you have a better or more recent aerial photo of Dutch John Airport that you would like to share? If so, please send us your photo.

 
Sectional chart

 
Airport distance calculator
Flying to Dutch John Airport? Find the distance to fly.

From to 33U

Sunrise and sunset
Times for 17-Oct-2019
 Local
(UTC-6)
 Zulu
(UTC)
Morning civil twilight07:0413:04
Sunrise07:3213:32
Sunset18:3400:34
Evening civil twilight19:0101:01

Current date and time
Zulu (UTC)  17-Oct-2019 14:44:27
Local (UTC-6)  17-Oct-2019 08:44:27
 
METAR
KVEL 
29nm S 
171353Z AUTO 00000KT 10SM CLR 01/M10 A2995 RMK AO2 SLP131 T00111100
KRKS 
43nm N 
171354Z AUTO 19009KT 10SM CLR 08/M12 A2991 RMK AO2 SLP076 T00831122
K74V 
49nm SW 
171435Z AUTO 26003KT 10SM CLR 02/M06 A2997 RMK AO2
TAF
KVEL 
29nm S 
171120Z 1712/1812 30006KT P6SM SCT250 FM171600 18005KT P6SM BKN250 FM180000 22011G19KT P6SM BKN150 FM180100 24009KT P6SM BKN100
NOTAMs
Click for the latest NOTAMs
NOTAMs are issued by the DoD/FAA and will open in a separate window not controlled by AirNav.

 

 
 

Would you like to see your business listed on this page?

 If your business provides an interesting product or service to pilots, flight crews, aircraft, or users of the Dutch John Airport, you should consider listing it here.  To start the listing process, click on the button below
 
Add a business
 

Other Pages about Dutch John Airport

Update a link
 
Copyright © AirNav, LLC. All rights reserved. Privacy Policy  Contact